createdAt,value
2023-03-12T00:02:01.272Z,96842.94
2023-03-12T00:04:28.807Z,96847.38
2023-03-12T00:06:55.496Z,96852.63
2023-03-12T00:09:23.518Z,96849.03
2023-03-12T00:11:50.194Z,96851.81
2023-03-12T00:14:17.161Z,96854.28
2023-03-12T00:16:43.934Z,96854.56
2023-03-12T00:19:13.605Z,96854.56
2023-03-12T00:21:40.519Z,96857.19
2023-03-12T00:24:08.360Z,96851.94
2023-03-12T00:26:35.067Z,96845.84
2023-03-12T00:29:02.131Z,96855.69
2023-03-12T00:31:32.934Z,96855.53
2023-03-12T00:34:01.236Z,96856.50
2023-03-12T00:36:31.377Z,96859.97
2023-03-12T00:38:59.656Z,96868.72
2023-03-12T00:41:27.436Z,96865.25
2023-03-12T00:43:54.153Z,96864.41
2023-03-12T00:46:20.987Z,96864.41
2023-03-12T00:48:48.175Z,96870.38
2023-03-12T00:51:15.071Z,96872.44
2023-03-12T00:53:45.180Z,96869.81
2023-03-12T00:56:11.859Z,96864.41
2023-03-12T00:58:38.904Z,96866.34
2023-03-12T01:01:06.052Z,96861.09
2023-03-12T01:03:33.168Z,96872.72
2023-03-12T01:06:00.102Z,96858.44
2023-03-12T01:08:26.930Z,96862.06
2023-03-12T01:10:53.859Z,96859.56
2023-03-12T01:13:21.428Z,96849.03
2023-03-12T01:15:48.133Z,96854.16
2023-03-12T01:18:14.976Z,96858.72
2023-03-12T01:20:41.991Z,96851.50
2023-03-12T01:23:09.902Z,96850.00
2023-03-12T01:25:37.653Z,96860.53
2023-03-12T01:28:04.998Z,96862.31
2023-03-12T01:30:32.057Z,96857.19
2023-03-12T01:32:58.839Z,96857.19
2023-03-12T01:35:26.061Z,96861.50
2023-03-12T01:37:53.202Z,96854.56
2023-03-12T01:40:25.553Z,96861.63
2023-03-12T01:42:54.190Z,96855.53
2023-03-12T01:45:58.420Z,96852.75
2023-03-12T01:48:27.817Z,96852.91
2023-03-12T01:50:54.620Z,96855.66
2023-03-12T01:53:22.590Z,96849.44
2023-03-12T01:55:50.186Z,96847.75
2023-03-12T01:58:17.701Z,96852.19
2023-03-12T02:00:45.353Z,96861.19
2023-03-12T02:03:13.970Z,96854.00
2023-03-12T02:05:51.979Z,96862.88
2023-03-12T02:08:19.814Z,96862.88
2023-03-12T02:10:47.080Z,96861.19
2023-03-12T02:13:14.336Z,96857.72
2023-03-12T02:15:41.172Z,96855.94
2023-03-12T02:18:12.001Z,96862.16
2023-03-12T02:20:56.920Z,96858.84
2023-03-12T02:23:51.073Z,96852.75
2023-03-12T02:26:19.951Z,96853.44
2023-03-12T02:28:48.227Z,96841.38
2023-03-12T02:31:20.130Z,96849.13
2023-03-12T02:33:47.002Z,96848.31
2023-03-12T02:36:13.801Z,96840.69
2023-03-12T02:38:42.585Z,96851.91
2023-03-12T02:41:20.321Z,96855.50
2023-03-12T02:44:10.129Z,96860.63
2023-03-12T02:46:51.114Z,96862.44
2023-03-12T02:49:19.484Z,96870.59
2023-03-12T02:51:47.544Z,96871.44
2023-03-12T02:54:17.126Z,96867.16
2023-03-12T02:56:44.090Z,96863.69
2023-03-12T02:59:13.409Z,96872.41
2023-03-12T03:01:40.939Z,96886.53
2023-03-12T03:04:10.621Z,96879.75
2023-03-12T03:06:40.592Z,96874.34
2023-03-12T03:09:07.629Z,96882.09
2023-03-12T03:11:34.592Z,96886.69
2023-03-12T03:14:03.425Z,96893.75
2023-03-12T03:16:34.044Z,96892.91
2023-03-12T03:19:00.915Z,96893.88
2023-03-12T03:21:28.321Z,96891.25
2023-03-12T03:23:55.018Z,96894.97
2023-03-12T03:26:24.164Z,96894.13
2023-03-12T03:28:51.470Z,96897.47
2023-03-12T03:31:18.824Z,96899.28
2023-03-12T03:33:46.103Z,96896.78
2023-03-12T03:36:15.115Z,96898.56
2023-03-12T03:38:42.661Z,96905.50
2023-03-12T03:41:09.565Z,96904.66
2023-03-12T03:43:36.446Z,96909.22
2023-03-12T03:46:05.433Z,96903.00
2023-03-12T03:48:32.698Z,96909.94
2023-03-12T03:51:04.436Z,96902.03
2023-03-12T03:53:31.915Z,96910.91
2023-03-12T03:55:58.945Z,96915.34
2023-03-12T03:58:25.645Z,96911.03
2023-03-12T04:00:54.484Z,96913.66
2023-03-12T04:03:21.217Z,96907.56
2023-03-12T04:05:54.529Z,96906.88
2023-03-12T04:08:21.360Z,96905.91
2023-03-12T04:10:48.408Z,96900.91
2023-03-12T04:13:15.254Z,96904.50
2023-03-12T04:15:49.682Z,96913.22
2023-03-12T04:18:16.550Z,96906.31
2023-03-12T04:20:43.776Z,96901.03
2023-03-12T04:23:11.498Z,96911.69
2023-03-12T04:25:39.306Z,96910.72
2023-03-12T04:28:06.648Z,96902.13
2023-03-12T04:30:33.474Z,96899.50
2023-03-12T04:33:00.282Z,96897.84
2023-03-12T04:35:27.080Z,96893.28
2023-03-12T04:37:53.835Z,96898.66
2023-03-12T04:40:20.736Z,96895.34
2023-03-12T04:42:48.084Z,96890.22
2023-03-12T04:45:15.337Z,96888.41
2023-03-12T04:47:42.160Z,96888.41
2023-03-12T04:50:09.804Z,96890.22
2023-03-12T04:52:36.628Z,96892.00
2023-03-12T04:55:03.782Z,96894.81
2023-03-12T04:57:30.509Z,96889.38
2023-03-12T04:59:57.321Z,96890.34
2023-03-12T05:02:24.777Z,96894.81
2023-03-12T05:04:51.444Z,96889.81
2023-03-12T05:07:18.216Z,96884.53
2023-03-12T05:09:46.453Z,96889.81
2023-03-12T05:12:13.198Z,96890.78
2023-03-12T05:14:40.070Z,96884.69
2023-03-12T05:17:07.129Z,96898.66
2023-03-12T05:19:33.896Z,96883.84
2023-03-12T05:22:00.861Z,96883.16
2023-03-12T05:24:28.658Z,96872.63
2023-03-12T05:26:55.440Z,96875.25
2023-03-12T05:29:22.411Z,96879.81
2023-03-12T05:31:50.050Z,96890.34
2023-03-12T05:34:16.832Z,96886.75
2023-03-12T05:36:44.404Z,96878.97
2023-03-12T05:39:11.211Z,96889.50
2023-03-12T05:41:38.063Z,96877.19
2023-03-12T05:44:05.272Z,96897.41
2023-03-12T05:46:32.004Z,96893.94
2023-03-12T05:48:58.800Z,96899.34
2023-03-12T05:51:25.503Z,96901.13
2023-03-12T05:53:52.270Z,96893.50
2023-03-12T05:56:19.027Z,96900.28
2023-03-12T05:58:48.191Z,96903.06
2023-03-12T06:01:18.264Z,96904.72
2023-03-12T06:03:45.643Z,96900.44
2023-03-12T06:06:13.081Z,96905.69
2023-03-12T06:08:40.684Z,96900.44
2023-03-12T06:11:07.866Z,96911.91
2023-03-12T06:13:34.685Z,96910.00
2023-03-12T06:16:06.814Z,96904.03
2023-03-12T06:18:35.181Z,96906.66
2023-03-12T06:21:19.402Z,96899.59
2023-03-12T06:23:47.233Z,96905.94
2023-03-12T06:26:14.578Z,96894.72
2023-03-12T06:28:41.578Z,96901.53
2023-03-12T06:31:09.713Z,96905.00
2023-03-12T06:33:36.633Z,96908.59
2023-03-12T06:36:06.005Z,96906.91
2023-03-12T06:38:33.726Z,96919.09
2023-03-12T06:41:01.667Z,96921.03
2023-03-12T06:43:30.210Z,96927.97
2023-03-12T06:45:58.664Z,96926.28
2023-03-12T06:48:26.836Z,96941.25
2023-03-12T06:50:53.872Z,96931.78
2023-03-12T06:53:21.746Z,96933.34
2023-03-12T06:55:50.528Z,96934.19
2023-03-12T06:58:17.300Z,96935.03
2023-03-12T07:00:44.110Z,96943.88
2023-03-12T07:03:10.944Z,96940.28
2023-03-12T07:05:37.710Z,96939.69
2023-03-12T07:08:04.574Z,96956.28
2023-03-12T07:10:31.683Z,96963.25
2023-03-12T07:12:58.561Z,96960.72
2023-03-12T07:15:25.444Z,96964.19
2023-03-12T07:17:52.162Z,96965.88
2023-03-12T07:20:19.068Z,96971.97
2023-03-12T07:22:45.812Z,96959.41
2023-03-12T07:25:12.556Z,96950.81
2023-03-12T07:27:39.348Z,96949.84
2023-03-12T07:30:06.763Z,96943.50
2023-03-12T07:32:33.715Z,96946.81
2023-03-12T07:35:00.754Z,96943.34
2023-03-12T07:37:27.509Z,96940.72
2023-03-12T07:39:54.998Z,96941.56
2023-03-12T07:42:22.332Z,96946.81
2023-03-12T07:44:49.061Z,96946.81
2023-03-12T07:47:23.768Z,96946.81
2023-03-12T07:49:51.594Z,96952.09
2023-03-12T07:52:20.227Z,96958.19
2023-03-12T07:54:47.759Z,96957.34
2023-03-12T07:57:14.999Z,96967.16
2023-03-12T07:59:41.977Z,96968.84
2023-03-12T08:02:10.980Z,96971.47
2023-03-12T08:04:37.959Z,96961.66
2023-03-12T08:07:07.358Z,96962.34
2023-03-12T08:09:36.110Z,96964.97
2023-03-12T08:12:03.010Z,96963.31
2023-03-12T08:14:31.859Z,96952.66
2023-03-12T08:16:59.428Z,96957.09
2023-03-12T08:19:27.078Z,96946.56
2023-03-12T08:21:55.667Z,96944.06
2023-03-12T08:24:22.458Z,96939.63
2023-03-12T08:26:49.282Z,96939.63
2023-03-12T08:29:17.046Z,96940.47
2023-03-12T08:32:01.482Z,96933.28
2023-03-12T08:34:30.615Z,96937.69
2023-03-12T08:36:57.569Z,96943.78
2023-03-12T08:39:24.241Z,96940.91
2023-03-12T08:41:55.487Z,96947.84
2023-03-12T08:44:23.630Z,96947.69
2023-03-12T08:46:51.249Z,96947.69
2023-03-12T08:49:18.548Z,96944.22
2023-03-12T08:51:45.262Z,96952.97
2023-03-12T08:54:12.277Z,96944.94
2023-03-12T08:56:46.136Z,96951.88
2023-03-12T08:59:13.653Z,96955.34
2023-03-12T09:01:43.564Z,96948.09
2023-03-12T09:04:10.627Z,96948.09
2023-03-12T09:06:38.833Z,96951.56
2023-03-12T09:09:09.239Z,96950.75
2023-03-12T09:11:39.802Z,96952.41
2023-03-12T09:15:00.887Z,96946.44
2023-03-12T09:16:54.226Z,96952.41
2023-03-12T09:19:21.310Z,96949.50
2023-03-12T09:21:50.814Z,96950.22
2023-03-12T09:24:17.993Z,96944.25
2023-03-12T09:26:44.829Z,96950.59
2023-03-12T09:29:11.662Z,96947.97
2023-03-12T09:31:38.529Z,96939.94
2023-03-12T09:34:06.007Z,96942.44
2023-03-12T09:36:33.529Z,96938.84
2023-03-12T09:39:00.418Z,96931.53
2023-03-12T09:41:31.086Z,96930.81
2023-03-12T09:44:05.055Z,96928.88
2023-03-12T09:46:39.164Z,96920.03
2023-03-12T09:49:17.811Z,96930.03
2023-03-12T09:51:51.835Z,96929.75
2023-03-12T09:54:59.666Z,96937.25
2023-03-12T09:57:27.808Z,96929.22
2023-03-12T09:59:55.055Z,96942.81
2023-03-12T10:02:40.386Z,96935.06
2023-03-12T10:05:13.178Z,96937.00
2023-03-12T10:07:58.286Z,96941.41
2023-03-12T10:10:45.413Z,96936.16
2023-03-12T10:13:33.941Z,96947.94
2023-03-12T10:16:39.612Z,96945.59
2023-03-12T10:19:25.404Z,96933.94
2023-03-12T10:22:10.682Z,96938.94
2023-03-12T10:25:01.034Z,96937.03
2023-03-12T10:27:30.580Z,96930.09
2023-03-12T10:29:58.549Z,96929.38
2023-03-12T10:32:43.545Z,96938.25
2023-03-12T10:35:21.900Z,96942.69
2023-03-12T10:38:04.049Z,96932.28
2023-03-12T10:40:36.196Z,96928.00
2023-03-12T10:43:07.152Z,96926.31
2023-03-12T10:45:47.051Z,96923.56
2023-03-12T10:48:23.090Z,96924.53
2023-03-12T10:51:10.169Z,96928.97
2023-03-12T10:53:45.151Z,96932.56
2023-03-12T10:56:21.080Z,96931.59
2023-03-12T10:58:51.084Z,96920.09
2023-03-12T11:01:32.032Z,96934.22
2023-03-12T11:04:15.780Z,96933.25
2023-03-12T11:06:43.294Z,96933.38
2023-03-12T11:09:17.055Z,96929.91
2023-03-12T11:11:47.890Z,96928.25
2023-03-12T11:14:21.692Z,96937.00
2023-03-12T11:16:50.875Z,96933.53
2023-03-12T11:19:36.002Z,96936.84
2023-03-12T11:22:08.435Z,96934.22
2023-03-12T11:24:36.047Z,96942.25
2023-03-12T11:27:08.223Z,96926.31
2023-03-12T11:29:47.347Z,96929.91
2023-03-12T11:32:34.120Z,96938.66
2023-03-12T11:35:02.387Z,96938.38
2023-03-12T11:37:40.852Z,96935.75
2023-03-12T11:40:40.006Z,96928.69
2023-03-12T11:43:42.013Z,96933.94
2023-03-12T11:46:29.092Z,96928.69
2023-03-12T11:48:59.200Z,96935.63
2023-03-12T11:51:54.207Z,96927.59
2023-03-12T11:54:40.273Z,96918.72
2023-03-12T11:57:24.960Z,96926.47
2023-03-12T12:00:33.496Z,96921.22
2023-03-12T12:03:35.228Z,96924.81
2023-03-12T12:06:41.350Z,96915.25
2023-03-12T12:09:37.807Z,96911.53
2023-03-12T12:12:23.669Z,96903.34
2023-03-12T12:15:09.419Z,96899.75
2023-03-12T12:17:57.469Z,96893.66
2023-03-12T12:20:31.990Z,96899.34
2023-03-12T12:23:06.050Z,96893.09
2023-03-12T12:25:51.688Z,96893.09
2023-03-12T12:28:35.621Z,96883.28
2023-03-12T12:31:26.676Z,96880.78
2023-03-12T12:34:06.036Z,96885.75
2023-03-12T12:36:35.993Z,96887.69
2023-03-12T12:39:15.544Z,96881.59
2023-03-12T12:41:53.229Z,96878.13
2023-03-12T12:44:49.755Z,96873.56
2023-03-12T12:47:30.343Z,96873.03
2023-03-12T12:50:00.033Z,96863.88
2023-03-12T12:52:27.735Z,96868.31
2023-03-12T12:55:03.862Z,96852.50
2023-03-12T12:57:39.711Z,96853.34
2023-03-12T13:00:23.862Z,96853.47
2023-03-12T13:02:51.543Z,96858.19
2023-03-12T13:05:27.425Z,96853.63
2023-03-12T13:07:54.531Z,96852.78
2023-03-12T13:10:33.665Z,96853.47
2023-03-12T13:13:09.736Z,96858.47
2023-03-12T13:15:41.024Z,96858.31
2023-03-12T13:18:23.195Z,96860.13
2023-03-12T13:20:52.886Z,96864.00
2023-03-12T13:23:31.424Z,96857.06
2023-03-12T13:26:08.416Z,96867.34
2023-03-12T13:29:11.480Z,96859.16
2023-03-12T13:31:41.712Z,96857.50
2023-03-12T13:34:28.804Z,96864.97
2023-03-12T13:37:03.249Z,96860.78
2023-03-12T13:39:37.270Z,96863.00
2023-03-12T13:42:24.662Z,96859.41
2023-03-12T13:44:53.622Z,96853.16
2023-03-12T13:47:27.149Z,96846.66
2023-03-12T13:50:04.074Z,96852.47
2023-03-12T13:52:33.823Z,96858.03
2023-03-12T13:55:20.156Z,96853.59
2023-03-12T13:58:01.250Z,96852.06
2023-03-12T14:00:41.891Z,96839.72
2023-03-12T14:03:22.163Z,96845.97
2023-03-12T14:05:55.454Z,96841.94
2023-03-12T14:08:48.822Z,96844.44
2023-03-12T14:11:41.973Z,96844.28
2023-03-12T14:14:26.840Z,96856.50
2023-03-12T14:16:58.490Z,96854.00
2023-03-12T14:19:36.302Z,96849.41
2023-03-12T14:22:11.074Z,96844.97
2023-03-12T14:24:42.521Z,96848.44
2023-03-12T14:27:21.812Z,96849.28
2023-03-12T14:30:19.169Z,96842.22
2023-03-12T14:32:50.313Z,96841.09
2023-03-12T14:35:23.691Z,96833.88
2023-03-12T14:37:56.904Z,96837.47
2023-03-12T14:40:38.616Z,96828.47
2023-03-12T14:43:20.411Z,96832.34
2023-03-12T14:45:51.097Z,96830.00
2023-03-12T14:48:22.547Z,96834.56
2023-03-12T14:50:49.451Z,96833.19
2023-03-12T14:53:29.197Z,96830.41
2023-03-12T14:56:30.698Z,96835.56
2023-03-12T14:59:00.149Z,96829.59
2023-03-12T15:01:32.362Z,96841.78
2023-03-12T15:04:16.491Z,96827.50
2023-03-12T15:06:50.184Z,96819.72
2023-03-12T15:09:27.902Z,96825.44
2023-03-12T15:12:08.719Z,96837.91
2023-03-12T15:14:40.482Z,96835.69
2023-03-12T15:17:08.756Z,96838.03
2023-03-12T15:19:39.816Z,96825.81
2023-03-12T15:22:19.254Z,96826.94
2023-03-12T15:24:46.112Z,96842.75
2023-03-12T15:27:24.962Z,96836.38
2023-03-12T15:29:52.610Z,96834.72
2023-03-12T15:32:21.222Z,96839.00
2023-03-12T15:34:48.626Z,96833.19
2023-03-12T15:37:41.403Z,96822.50
2023-03-12T15:40:22.333Z,96823.47
2023-03-12T15:42:50.606Z,96827.78
2023-03-12T15:45:26.813Z,96827.78
2023-03-12T15:47:54.725Z,96833.88
2023-03-12T15:50:24.403Z,96824.16
2023-03-12T15:53:14.698Z,96822.50
2023-03-12T15:55:42.017Z,96814.59
2023-03-12T15:58:27.464Z,96822.22
2023-03-12T16:00:54.649Z,96819.72
2023-03-12T16:03:22.420Z,96816.94
2023-03-12T16:05:50.706Z,96819.59
2023-03-12T16:08:22.856Z,96825.81
2023-03-12T16:10:51.050Z,96821.38
2023-03-12T16:13:23.269Z,96820.56
2023-03-12T16:15:52.786Z,96832.75
2023-03-12T16:18:22.092Z,96833.59
2023-03-12T16:20:50.647Z,96826.56
2023-03-12T16:23:19.036Z,96835.28
2023-03-12T16:25:56.597Z,96843.06
2023-03-12T16:28:24.335Z,96848.31
2023-03-12T16:30:51.939Z,96844.72
2023-03-12T16:33:21.583Z,96842.78
2023-03-12T16:35:48.700Z,96835.69
2023-03-12T16:38:15.836Z,96840.00
2023-03-12T16:40:48.750Z,96838.34
2023-03-12T16:43:24.399Z,96839.84
2023-03-12T16:45:53.044Z,96841.66
2023-03-12T16:48:24.206Z,96849.44
2023-03-12T16:50:56.827Z,96847.63
2023-03-12T16:53:24.027Z,96857.34
2023-03-12T16:55:56.818Z,96852.06
2023-03-12T16:58:24.862Z,96851.09
2023-03-12T17:00:53.592Z,96848.44
2023-03-12T17:03:45.601Z,96843.19
2023-03-12T17:06:18.430Z,96851.09
2023-03-12T17:08:46.188Z,96846.66
2023-03-12T17:11:34.698Z,96848.44
2023-03-12T17:14:03.957Z,96843.88
2023-03-12T17:16:31.000Z,96847.47
2023-03-12T17:18:58.080Z,96854.41
2023-03-12T17:21:25.105Z,96859.69
2023-03-12T17:23:51.935Z,96865.94
2023-03-12T17:26:19.479Z,96870.25
2023-03-12T17:28:46.126Z,96864.00
2023-03-12T17:31:12.958Z,96865.78
2023-03-12T17:33:39.906Z,96865.78
2023-03-12T17:36:09.340Z,96864.81
2023-03-12T17:38:37.144Z,96866.63
2023-03-12T17:41:09.403Z,96868.28
2023-03-12T17:43:41.266Z,96857.75
2023-03-12T17:46:10.423Z,96869.97
2023-03-12T17:48:37.165Z,96868.16
2023-03-12T17:51:10.102Z,96856.78
2023-03-12T17:53:42.089Z,96859.28
2023-03-12T17:56:09.339Z,96860.25
2023-03-12T17:58:36.306Z,96860.94
2023-03-12T18:01:03.472Z,96867.19
2023-03-12T18:03:30.296Z,96854.81
2023-03-12T18:05:57.162Z,96861.06
2023-03-12T18:08:23.827Z,96870.66
2023-03-12T18:10:50.833Z,96864.41
2023-03-12T18:13:17.810Z,96865.22
2023-03-12T18:15:52.059Z,96869.66
2023-03-12T18:18:18.777Z,96864.41
2023-03-12T18:20:46.621Z,96873.13
2023-03-12T18:23:13.549Z,96877.44
2023-03-12T18:25:49.788Z,96879.25
2023-03-12T18:28:16.929Z,96880.91
2023-03-12T18:30:47.794Z,96879.09
2023-03-12T18:33:17.398Z,96881.75
2023-03-12T18:35:44.239Z,96890.47
2023-03-12T18:38:11.325Z,96892.28
2023-03-12T18:40:38.502Z,96894.09
2023-03-12T18:43:05.770Z,96886.88
2023-03-12T18:45:32.976Z,96899.22
2023-03-12T18:47:59.800Z,96904.50
2023-03-12T18:50:26.918Z,96904.34
2023-03-12T18:52:53.794Z,96911.84
2023-03-12T18:55:20.591Z,96906.00
2023-03-12T18:57:48.118Z,96908.09
2023-03-12T19:00:19.855Z,96909.06
2023-03-12T19:02:48.020Z,96912.53
2023-03-12T19:05:16.371Z,96909.91
2023-03-12T19:07:43.988Z,96914.34
2023-03-12T19:10:12.494Z,96906.44
2023-03-12T19:12:51.323Z,96911.84
2023-03-12T19:15:20.606Z,96913.50
2023-03-12T19:17:47.331Z,96914.34
2023-03-12T19:20:14.438Z,96918.78
2023-03-12T19:22:41.397Z,96929.34
2023-03-12T19:25:08.664Z,96918.78
2023-03-12T19:27:35.353Z,96918.66
2023-03-12T19:30:06.200Z,96917.97
2023-03-12T19:32:42.318Z,96931.13
2023-03-12T19:35:11.737Z,96926.69
2023-03-12T19:37:38.707Z,96927.66
2023-03-12T19:40:06.363Z,96928.50
2023-03-12T19:42:33.183Z,96924.06
2023-03-12T19:45:00.179Z,96930.16
2023-03-12T19:47:27.131Z,96928.38
2023-03-12T19:49:54.018Z,96934.59
2023-03-12T19:52:20.727Z,96934.47
2023-03-12T19:55:01.541Z,96938.09
2023-03-12T19:57:30.881Z,96947.66
2023-03-12T19:59:57.711Z,96945.84
2023-03-12T20:02:27.451Z,96957.38
2023-03-12T20:04:55.546Z,96946.00
2023-03-12T20:07:22.725Z,96937.09
2023-03-12T20:09:49.817Z,96953.75
2023-03-12T20:12:16.799Z,96951.97
2023-03-12T20:14:43.901Z,96947.66
2023-03-12T20:17:12.295Z,96937.09
2023-03-12T20:19:40.212Z,96951.13
2023-03-12T20:22:07.475Z,96951.97
2023-03-12T20:24:34.792Z,96951.00
2023-03-12T20:27:01.584Z,96945.03
2023-03-12T20:29:28.520Z,96948.34
2023-03-12T20:31:55.402Z,96948.34
2023-03-12T20:34:22.523Z,96949.31
2023-03-12T20:36:49.405Z,96944.75
2023-03-12T20:39:16.322Z,96934.31
2023-03-12T20:41:43.221Z,96939.59
2023-03-12T20:44:10.059Z,96937.81
2023-03-12T20:46:36.896Z,96939.47
2023-03-12T20:49:03.680Z,96934.19
2023-03-12T20:51:34.238Z,96942.09
2023-03-12T20:54:01.128Z,96940.44
2023-03-12T20:56:28.075Z,96938.63
2023-03-12T20:58:54.948Z,96939.47
2023-03-12T21:01:22.024Z,96939.59
2023-03-12T21:03:49.284Z,96942.25
2023-03-12T21:06:16.476Z,96951.81
2023-03-12T21:08:43.344Z,96951.81
2023-03-12T21:11:10.726Z,96959.59
2023-03-12T21:13:37.813Z,96954.31
2023-03-12T21:16:19.416Z,96956.94
2023-03-12T21:18:49.597Z,96952.66
2023-03-12T21:24:58.507Z,96963.06
2023-03-12T21:27:25.665Z,96961.41
2023-03-12T21:29:55.747Z,96966.66
2023-03-12T21:32:23.152Z,96964.03
2023-03-12T21:34:50.605Z,96956.94
2023-03-12T21:37:17.664Z,96964.88
2023-03-12T21:39:48.555Z,96962.22
2023-03-12T21:42:24.507Z,96964.88
2023-03-12T21:44:52.171Z,96959.59
2023-03-12T21:51:10.689Z,96956.94
2023-03-12T21:53:41.306Z,96951.69
2023-03-12T21:56:12.594Z,96948.06
2023-03-12T22:02:29.923Z,96952.38
2023-03-12T22:05:38.540Z,96941.13
2023-03-12T22:08:12.818Z,96942.78
2023-03-12T22:13:24.215Z,96936.69
2023-03-12T22:15:58.883Z,96941.00
2023-03-12T22:18:26.865Z,96937.53
2023-03-12T22:21:01.962Z,96930.44
2023-03-12T22:23:29.852Z,96937.53
2023-03-12T22:26:00.667Z,96936.69
2023-03-12T22:28:27.582Z,96928.78
2023-03-12T22:31:12.586Z,96925.16
2023-03-12T22:33:39.727Z,96925.16
2023-03-12T22:36:09.189Z,96926.84
2023-03-12T22:38:37.216Z,96923.22
2023-03-12T22:41:16.658Z,96923.06
2023-03-12T22:43:45.021Z,96914.34
2023-03-12T22:46:12.898Z,96916.13
2023-03-12T22:48:40.135Z,96924.03
2023-03-12T22:51:12.280Z,96913.50
2023-03-12T22:53:43.254Z,96912.53
2023-03-12T22:56:12.441Z,96899.34
2023-03-12T22:58:40.193Z,96902.94
2023-03-12T23:01:10.036Z,96901.16
2023-03-12T23:03:37.867Z,96902.81
2023-03-12T23:06:12.125Z,96901.97
2023-03-12T23:08:39.330Z,96895.03
2023-03-12T23:11:08.365Z,96893.38
2023-03-12T23:13:37.724Z,96889.47
2023-03-12T23:16:07.628Z,96893.09
2023-03-12T23:18:35.652Z,96886.00
2023-03-12T23:21:07.981Z,96887.13
2023-03-12T23:23:35.872Z,96879.91
2023-03-12T23:26:06.195Z,96885.03
2023-03-12T23:28:33.166Z,96882.41
2023-03-12T23:31:06.021Z,96875.47
2023-03-12T23:33:34.441Z,96879.91
2023-03-12T23:36:11.489Z,96880.59
2023-03-12T23:38:38.751Z,96877.13
2023-03-12T23:41:12.362Z,96870.19
2023-03-12T23:43:39.535Z,96866.56
2023-03-12T23:46:09.171Z,96863.94
2023-03-12T23:48:37.924Z,96865.06
2023-03-12T23:51:12.011Z,96871.84
2023-03-12T23:53:42.340Z,96868.22
2023-03-12T23:56:12.348Z,96856.03
2023-03-12T23:58:39.507Z,96858.50
